createdAt,value
2019-03-20T00:01:08.677Z,10.10
2019-03-20T00:04:15.154Z,9.30
2019-03-20T00:07:20.411Z,8.43
2019-03-20T00:10:25.864Z,10.70
2019-03-20T00:13:32.286Z,9.47
2019-03-20T00:16:37.656Z,10.07
2019-03-20T00:19:42.932Z,14.43
2019-03-20T00:22:48.282Z,12.87
2019-03-20T00:25:53.552Z,12.97
2019-03-20T00:28:58.813Z,8.20
2019-03-20T00:32:04.781Z,15.13
2019-03-20T00:35:11.444Z,6.80
2019-03-20T00:38:16.683Z,12.30
2019-03-20T00:58:50.957Z,10.67
2019-03-20T01:01:56.333Z,10.40
2019-03-20T01:05:08.474Z,15.70
2019-03-20T01:08:08.620Z,12.23
2019-03-20T01:11:13.972Z,22.57
2019-03-20T01:14:19.381Z,17.37
2019-03-20T01:17:24.730Z,8.63
2019-03-20T01:20:30.089Z,13.50
2019-03-20T01:23:35.417Z,12.97
2019-03-20T01:26:40.673Z,10.20
2019-03-20T01:29:45.898Z,13.23
2019-03-20T01:32:51.164Z,10.93
2019-03-20T01:35:56.510Z,24.10
2019-03-20T01:39:01.774Z,16.20
2019-03-20T01:42:08.621Z,15.03
2019-03-20T01:45:14.037Z,17.60
2019-03-20T01:48:19.357Z,16.47
2019-03-20T01:51:24.581Z,11.20
2019-03-20T01:54:30.318Z,11.30
2019-03-20T01:57:35.656Z,9.50
2019-03-20T02:00:41.322Z,15.60
2019-03-20T02:03:48.885Z,22.80
2019-03-20T02:06:54.291Z,14.83
2019-03-20T02:09:59.531Z,18.00
2019-03-20T02:13:04.796Z,16.63
2019-03-20T02:16:09.993Z,19.93
2019-03-20T02:19:15.296Z,13.00
2019-03-20T02:22:20.526Z,17.27
2019-03-20T02:25:25.746Z,15.07
2019-03-20T02:28:33.755Z,14.53
2019-03-20T02:31:38.979Z,13.63
2019-03-20T02:34:44.243Z,18.40
2019-03-20T02:37:49.531Z,18.90
2019-03-20T02:40:54.899Z,22.07
2019-03-20T02:44:00.204Z,15.50
2019-03-20T02:47:05.576Z,12.53
2019-03-20T02:50:12.612Z,15.00
2019-03-20T02:53:18.123Z,13.37
2019-03-20T02:56:26.350Z,13.47
2019-03-20T02:59:31.596Z,15.93
2019-03-20T03:02:36.869Z,15.70
2019-03-20T03:05:42.264Z,18.40
2019-03-20T03:08:47.554Z,22.20
2019-03-20T03:11:52.821Z,24.23
2019-03-20T03:14:58.143Z,18.60
2019-03-20T03:18:03.511Z,20.10
2019-03-20T03:21:08.891Z,16.83
2019-03-20T03:24:15.151Z,19.90
2019-03-20T03:27:20.499Z,22.33
2019-03-20T03:30:25.755Z,17.87
2019-03-20T03:33:31.083Z,16.53
2019-03-20T03:36:36.343Z,15.10
2019-03-20T03:39:41.595Z,17.50
2019-03-20T03:42:47.066Z,19.67
2019-03-20T03:45:52.429Z,26.20
2019-03-20T03:49:00.099Z,25.73
2019-03-20T03:52:05.577Z,25.77
2019-03-20T03:55:11.440Z,27.70
2019-03-20T03:58:16.651Z,30.80
2019-03-20T04:01:21.902Z,32.30
2019-03-20T04:04:27.147Z,32.40
2019-03-20T04:07:32.437Z,30.73
2019-03-20T04:10:38.825Z,26.30
2019-03-20T04:13:44.105Z,25.93
2019-03-20T04:16:49.447Z,29.33
2019-03-20T04:19:54.712Z,28.17
2019-03-20T04:23:00.054Z,33.70
2019-03-20T04:26:05.386Z,29.83
2019-03-20T04:29:10.639Z,33.37
2019-03-20T04:32:15.924Z,32.63
2019-03-20T04:35:21.168Z,24.77
2019-03-20T04:38:26.416Z,29.10
2019-03-20T04:41:31.761Z,35.37
2019-03-20T04:44:36.987Z,27.13
2019-03-20T04:47:47.152Z,30.03
2019-03-20T04:50:49.437Z,29.73
2019-03-20T04:53:56.205Z,35.60
2019-03-20T04:57:01.497Z,31.53
2019-03-20T05:00:08.435Z,31.60
2019-03-20T05:03:13.696Z,36.63
2019-03-20T05:06:19.040Z,39.93
2019-03-20T05:09:24.338Z,38.57
2019-03-20T05:12:29.626Z,29.20
2019-03-20T05:15:35.941Z,37.63
2019-03-20T05:18:41.210Z,33.27
2019-03-20T05:21:46.503Z,35.00
2019-03-20T05:24:51.805Z,32.67
2019-03-20T05:27:57.327Z,34.47
2019-03-20T05:31:02.647Z,30.53
2019-03-20T05:34:07.920Z,34.57
2019-03-20T05:37:13.212Z,28.20
2019-03-20T05:40:18.524Z,29.23
2019-03-20T05:43:23.960Z,29.13
2019-03-20T05:46:29.326Z,26.47
2019-03-20T05:49:34.572Z,31.60
2019-03-20T05:52:42.342Z,29.00
2019-03-20T05:56:50.915Z,33.47
2019-03-20T06:00:51.993Z,35.07
2019-03-20T06:04:02.430Z,29.40
2019-03-20T06:07:07.922Z,30.10
2019-03-20T06:10:13.572Z,28.90
2019-03-20T06:13:18.853Z,29.53
2019-03-20T06:16:24.161Z,38.40
2019-03-20T06:19:29.386Z,29.83
2019-03-20T06:22:34.653Z,28.73
2019-03-20T06:25:39.946Z,30.40
2019-03-20T06:28:45.287Z,35.07
2019-03-20T06:31:50.579Z,30.33
2019-03-20T06:34:55.815Z,26.67
2019-03-20T06:38:01.096Z,23.40
2019-03-20T06:41:06.396Z,32.60
2019-03-20T06:44:11.740Z,37.63
2019-03-20T06:47:16.993Z,32.53
2019-03-20T06:50:22.340Z,30.23
2019-03-20T06:53:29.819Z,33.43
2019-03-20T06:56:35.062Z,28.50
2019-03-20T07:00:05.423Z,28.27
2019-03-20T07:03:14.249Z,31.00
2019-03-20T07:06:43.941Z,29.73
2019-03-20T07:10:30.426Z,26.67
2019-03-20T07:13:35.660Z,27.23
2019-03-20T07:16:40.920Z,31.87
2019-03-20T07:19:46.285Z,28.67
2019-03-20T07:22:53.914Z,33.10
2019-03-20T07:25:59.240Z,36.50
2019-03-20T07:29:04.725Z,28.53
2019-03-20T07:32:09.927Z,32.80
2019-03-20T07:35:15.178Z,34.50
2019-03-20T07:38:20.531Z,27.27
2019-03-20T07:41:25.757Z,31.93
2019-03-20T07:44:31.021Z,24.10
2019-03-20T07:47:36.268Z,28.07
2019-03-20T07:50:41.644Z,28.10
2019-03-20T07:53:46.885Z,27.67
2019-03-20T07:56:53.272Z,28.70
2019-03-20T07:59:58.544Z,27.10
2019-03-20T08:03:03.828Z,27.87
2019-03-20T08:06:09.135Z,26.03
2019-03-20T08:09:14.518Z,30.37
2019-03-20T08:12:19.860Z,26.97
2019-03-20T08:15:25.116Z,25.97
2019-03-20T08:18:30.351Z,25.50
2019-03-20T08:21:35.623Z,25.07
2019-03-20T08:24:40.879Z,28.23
2019-03-20T08:27:46.115Z,41.40
2019-03-20T08:30:53.080Z,32.07
2019-03-20T08:33:58.453Z,26.13
2019-03-20T08:37:03.844Z,24.37
2019-03-20T08:40:10.108Z,27.30
2019-03-20T08:43:15.480Z,28.27
2019-03-20T08:46:20.826Z,29.07
2019-03-20T08:49:26.131Z,26.40
2019-03-20T08:52:31.410Z,27.00
2019-03-20T08:55:36.820Z,32.60
2019-03-20T08:58:42.096Z,27.23
2019-03-20T09:01:47.377Z,26.10
2019-03-20T09:04:52.690Z,27.00
2019-03-20T09:07:57.983Z,27.30
2019-03-20T09:11:03.320Z,26.23
2019-03-20T09:14:08.770Z,23.53
2019-03-20T09:17:13.998Z,30.00
2019-03-20T09:20:19.256Z,21.23
2019-03-20T09:23:24.580Z,26.83
2019-03-20T09:26:29.802Z,25.20
2019-03-20T09:29:36.313Z,21.57
2019-03-20T09:32:45.994Z,21.83
2019-03-20T09:35:51.245Z,24.23
2019-03-20T09:38:56.591Z,29.83
2019-03-20T09:42:01.837Z,22.63
2019-03-20T09:45:08.735Z,21.63
2019-03-20T09:48:15.029Z,24.37
2019-03-20T09:51:20.293Z,21.60
2019-03-20T09:54:25.536Z,17.60
2019-03-20T09:57:30.893Z,20.93
2019-03-20T10:00:36.188Z,21.13
2019-03-20T10:03:41.486Z,21.10
2019-03-20T10:06:46.815Z,18.90
2019-03-20T10:09:52.097Z,19.43
2019-03-20T10:12:57.453Z,16.23
2019-03-20T10:16:02.765Z,17.07
2019-03-20T10:19:08.030Z,17.10
2019-03-20T10:22:14.859Z,18.57
2019-03-20T10:25:20.265Z,21.07
2019-03-20T10:28:25.591Z,20.70
2019-03-20T10:31:30.993Z,18.17
2019-03-20T10:34:39.645Z,24.00
2019-03-20T10:37:45.695Z,18.30
2019-03-20T10:40:50.941Z,22.93
2019-03-20T10:43:57.233Z,17.90
2019-03-20T10:47:02.475Z,22.57
2019-03-20T10:50:11.482Z,24.30
2019-03-20T10:53:16.778Z,17.67
2019-03-20T10:56:22.211Z,21.77
2019-03-20T10:59:29.634Z,22.00
2019-03-20T11:02:34.649Z,21.07
2019-03-20T11:05:40.218Z,22.33
2019-03-20T11:08:45.534Z,23.50
2019-03-20T11:11:55.275Z,21.17
2019-03-20T11:15:00.506Z,17.40
2019-03-20T11:18:05.749Z,19.00
2019-03-20T11:21:11.064Z,23.77
2019-03-20T11:24:16.293Z,20.10
2019-03-20T11:27:21.596Z,19.97
2019-03-20T11:30:26.910Z,17.80
2019-03-20T11:33:35.445Z,21.13
2019-03-20T11:36:40.840Z,19.53
2019-03-20T11:39:46.363Z,21.00
2019-03-20T11:42:51.637Z,18.70
2019-03-20T11:45:59.048Z,16.77
2019-03-20T11:49:05.595Z,18.93
2019-03-20T11:52:10.859Z,15.70
2019-03-20T11:55:16.143Z,17.20
2019-03-20T11:58:21.420Z,20.17
2019-03-20T12:01:26.665Z,19.20
2019-03-20T12:04:31.966Z,19.67
2019-03-20T12:07:37.234Z,16.43
2019-03-20T12:10:42.615Z,22.37
2019-03-20T12:13:48.852Z,21.90
2019-03-20T12:16:54.154Z,16.47
2019-03-20T12:19:59.443Z,21.70
2019-03-20T12:23:04.748Z,19.13
2019-03-20T12:26:10.049Z,22.17
2019-03-20T12:29:15.294Z,14.87
2019-03-20T12:32:20.571Z,16.47
2019-03-20T12:35:27.257Z,16.50
2019-03-20T12:38:32.523Z,16.77
2019-03-20T12:41:37.893Z,15.40
2019-03-20T12:44:43.144Z,17.47
2019-03-20T12:47:48.437Z,18.00
2019-03-20T12:51:02.389Z,14.87
2019-03-20T12:54:14.387Z,21.60
2019-03-20T12:57:21.363Z,18.13
2019-03-20T13:00:29.448Z,19.00
2019-03-20T13:03:34.739Z,16.33
2019-03-20T13:06:40.154Z,27.63
2019-03-20T13:09:45.689Z,20.50
2019-03-20T13:12:50.995Z,17.10
2019-03-20T13:15:56.492Z,20.53
2019-03-20T13:19:01.752Z,16.87
2019-03-20T13:22:06.997Z,21.17
2019-03-20T13:25:14.437Z,15.03
2019-03-20T13:28:19.760Z,15.90
2019-03-20T13:31:25.113Z,19.70
2019-03-20T13:34:30.352Z,17.33
2019-03-20T13:37:35.668Z,15.80
2019-03-20T13:40:40.927Z,23.23
2019-03-20T13:43:46.218Z,22.87
2019-03-20T13:46:51.493Z,18.13
2019-03-20T13:49:56.928Z,16.17
2019-03-20T13:53:03.439Z,17.20
2019-03-20T13:56:08.802Z,15.17
2019-03-20T13:59:14.208Z,12.40
2019-03-20T14:02:19.499Z,16.80
2019-03-20T14:05:25.039Z,17.13
2019-03-20T14:08:30.344Z,15.97
2019-03-20T14:11:35.623Z,17.70
2019-03-20T14:14:40.982Z,14.87
2019-03-20T14:17:46.307Z,14.10
2019-03-20T14:20:51.616Z,23.10
2019-03-20T14:23:57.013Z,16.70
2019-03-20T14:27:02.278Z,14.40
2019-03-20T14:30:19.524Z,20.47
2019-03-20T14:33:24.793Z,21.17
2019-03-20T14:36:30.058Z,22.17
2019-03-20T14:39:36.378Z,17.40
2019-03-20T14:42:41.708Z,18.23
2019-03-20T14:45:47.019Z,15.70
2019-03-20T14:48:53.262Z,18.07
2019-03-20T14:51:58.594Z,19.23
2019-03-20T14:55:04.138Z,22.53
2019-03-20T14:58:09.500Z,22.60
2019-03-20T15:01:14.738Z,24.57
2019-03-20T15:04:20.098Z,21.13
2019-03-20T15:07:25.423Z,18.03
2019-03-20T15:10:30.787Z,18.50
2019-03-20T15:13:36.098Z,20.50
2019-03-20T15:16:41.471Z,20.00
2019-03-20T15:19:46.784Z,14.23
2019-03-20T15:22:52.073Z,16.50
2019-03-20T15:25:57.464Z,16.47
2019-03-20T15:29:02.794Z,14.20
2019-03-20T15:32:08.164Z,18.60
2019-03-20T15:35:13.618Z,18.70
2019-03-20T15:38:20.634Z,21.07
2019-03-20T15:41:25.897Z,21.63
2019-03-20T15:44:31.200Z,17.17
2019-03-20T15:47:36.502Z,16.83
2019-03-20T15:50:41.897Z,14.80
2019-03-20T15:53:47.394Z,15.73
2019-03-20T15:56:56.014Z,22.63
2019-03-20T16:00:01.244Z,15.90
2019-03-20T16:03:32.573Z,14.40
2019-03-20T16:06:37.955Z,10.27
2019-03-20T16:09:46.465Z,13.23
2019-03-20T16:12:51.718Z,11.80
2019-03-20T16:15:58.123Z,12.97
2019-03-20T16:19:04.973Z,10.60
2019-03-20T16:22:10.302Z,13.87
2019-03-20T16:25:15.781Z,15.90
2019-03-20T16:28:21.177Z,11.03
2019-03-20T16:31:26.431Z,14.87
2019-03-20T16:34:31.877Z,9.90
2019-03-20T16:37:37.171Z,11.43
2019-03-20T16:40:42.542Z,14.20
2019-03-20T16:43:47.828Z,11.17
2019-03-20T16:46:53.167Z,10.00
2019-03-20T16:49:58.530Z,11.37
2019-03-20T16:53:03.841Z,14.03
2019-03-20T16:56:09.131Z,14.10
2019-03-20T16:59:14.458Z,12.53
2019-03-20T17:02:19.902Z,11.57
2019-03-20T17:05:25.717Z,10.90
2019-03-20T17:08:40.347Z,14.83
2019-03-20T17:11:46.976Z,12.03
2019-03-20T17:14:52.327Z,8.90
2019-03-20T17:17:57.716Z,12.40
2019-03-20T17:21:03.043Z,11.00
2019-03-20T17:24:08.328Z,12.53
2019-03-20T17:27:13.719Z,11.10
2019-03-20T17:30:23.649Z,14.27
2019-03-20T17:33:28.987Z,11.47
2019-03-20T17:36:34.348Z,16.83
2019-03-20T17:39:39.706Z,14.50
2019-03-20T17:42:46.683Z,12.20
2019-03-20T17:45:52.041Z,12.80
2019-03-20T17:48:57.466Z,14.60
2019-03-20T17:52:02.787Z,14.47
2019-03-20T17:55:08.170Z,13.73
2019-03-20T17:58:15.036Z,13.00
2019-03-20T18:01:20.301Z,12.40
2019-03-20T18:04:25.532Z,20.43
2019-03-20T18:07:30.847Z,15.73
2019-03-20T18:10:36.171Z,19.43
2019-03-20T18:13:41.427Z,16.77
2019-03-20T18:16:46.763Z,15.30
2019-03-20T18:19:52.228Z,15.13
2019-03-20T18:22:57.577Z,15.40
2019-03-20T18:26:05.706Z,12.07
2019-03-20T18:29:11.120Z,18.57
2019-03-20T18:32:16.626Z,18.33
2019-03-20T18:35:22.007Z,15.63
2019-03-20T18:38:27.305Z,14.63
2019-03-20T18:41:32.696Z,14.10
2019-03-20T18:44:37.963Z,14.30
2019-03-20T18:47:45.248Z,16.10
2019-03-20T18:50:50.602Z,16.10
2019-03-20T18:53:55.905Z,14.27
2019-03-20T18:57:01.538Z,16.80
2019-03-20T19:00:11.653Z,16.47
2019-03-20T19:03:19.116Z,17.40
2019-03-20T19:06:26.142Z,17.10
2019-03-20T19:09:31.563Z,17.10
2019-03-20T19:12:36.935Z,18.47
2019-03-20T19:15:42.454Z,15.17
2019-03-20T19:18:47.754Z,17.80
2019-03-20T19:21:54.478Z,20.20
2019-03-20T19:24:59.910Z,19.60
2019-03-20T19:28:05.433Z,17.60
2019-03-20T19:31:10.827Z,17.30
2019-03-20T19:34:16.242Z,22.80
2019-03-20T19:37:21.680Z,19.17
2019-03-20T19:40:27.131Z,19.43
2019-03-20T19:43:32.503Z,21.57
2019-03-20T19:46:38.306Z,19.00
2019-03-20T19:49:44.781Z,20.00
2019-03-20T19:52:50.196Z,19.43
2019-03-20T19:55:57.322Z,22.23
2019-03-20T19:59:02.919Z,21.07
2019-03-20T20:02:08.242Z,27.10
2019-03-20T20:05:16.094Z,25.97
2019-03-20T20:08:20.767Z,25.10
2019-03-20T20:11:26.100Z,20.10
2019-03-20T20:14:31.449Z,25.20
2019-03-20T20:17:36.855Z,23.97
2019-03-20T20:20:42.311Z,25.53
2019-03-20T20:23:47.615Z,28.40
2019-03-20T20:26:52.986Z,26.93
2019-03-20T20:29:58.352Z,25.20
2019-03-20T20:33:03.693Z,24.87
2019-03-20T20:36:09.114Z,24.53
2019-03-20T20:39:14.419Z,26.57
2019-03-20T20:42:19.827Z,24.40
2019-03-20T20:45:26.743Z,27.43
2019-03-20T20:48:33.216Z,27.37
2019-03-20T20:51:38.493Z,22.63
2019-03-20T20:54:43.851Z,22.30
2019-03-20T20:57:49.122Z,26.87
2019-03-20T21:00:54.385Z,28.80
2019-03-20T21:03:59.920Z,31.43
2019-03-20T21:07:05.305Z,29.33
2019-03-20T21:10:13.869Z,31.33
2019-03-20T21:13:19.201Z,27.47
2019-03-20T21:16:25.350Z,35.07
2019-03-20T21:19:32.765Z,29.10
2019-03-20T21:23:28.325Z,32.90
2019-03-20T21:26:35.390Z,30.43
2019-03-20T21:30:06.830Z,30.87
2019-03-20T21:33:19.119Z,28.73
2019-03-20T21:37:14.494Z,28.90
2019-03-20T21:40:21.516Z,29.03
2019-03-20T21:43:55.571Z,31.33
2019-03-20T21:47:25.236Z,34.77
2019-03-20T21:51:09.754Z,30.70
2019-03-20T21:54:56.562Z,35.50
2019-03-20T21:58:20.131Z,33.70
2019-03-20T22:02:05.664Z,36.67
2019-03-20T22:05:23.001Z,33.60
2019-03-20T22:08:23.730Z,37.60
2019-03-20T22:12:04.828Z,40.30
2019-03-20T22:15:23.920Z,43.20
2019-03-20T22:19:26.695Z,43.70
2019-03-20T22:23:40.664Z,44.23
2019-03-20T22:27:29.098Z,40.40
2019-03-20T22:30:35.604Z,43.13
2019-03-20T22:34:16.859Z,39.40
2019-03-20T22:37:23.281Z,42.53
2019-03-20T22:41:11.626Z,43.70
2019-03-20T22:44:17.634Z,45.60
2019-03-20T22:48:14.997Z,49.03
2019-03-20T22:51:59.238Z,49.80
2019-03-20T22:55:30.793Z,46.60
2019-03-20T22:58:49.100Z,44.90
2019-03-20T23:02:31.415Z,44.90
2019-03-20T23:05:37.379Z,39.50
2019-03-20T23:08:44.348Z,44.00
2019-03-20T23:11:50.305Z,49.70
2019-03-20T23:14:57.864Z,46.60
2019-03-20T23:18:03.812Z,61.23
2019-03-20T23:21:09.788Z,57.60
2019-03-20T23:24:16.753Z,69.97
2019-03-20T23:27:29.013Z,58.73
2019-03-20T23:30:34.909Z,61.87
2019-03-20T23:33:40.791Z,55.17
2019-03-20T23:36:46.804Z,56.50
2019-03-20T23:39:52.771Z,57.20
2019-03-20T23:42:58.816Z,61.17
2019-03-20T23:46:04.926Z,55.73
2019-03-20T23:49:14.075Z,59.93
2019-03-20T23:52:22.028Z,59.57
2019-03-20T23:55:27.645Z,53.17
2019-03-20T23:58:37.649Z,56.07
